Portada
METAR-TAF:

METAR-TAF

Aeroports :

Timimoun, Algèria

latitud: 29-15N, longitud: 000-17E, altitud: 312 m

Observació

L'informe es va fer fa 58 minuts, a les 20:00 UTC
Vent 20 kt del Est/Nord-Est
Temperatura 34°C
Humitat 15%
Pressió 1014 hPa
Visibilitat: 5000 m
torb baixa de sorra

METAR: DAUT 252000Z 06020KT 5000 DRSA NSC 34/04 Q1014

Hora: 21:58 (20:58 UTC)

Pronòstic

L'informe es va fer fa 58 minuts, a les 20:00 UTC
Pronòstic vàlid del 25 a les 21 UTC al 26 a les 06 UTC
Vent 18 kt del Nord-Est
Visibilitat: 6000 m
Escasses núvols a una alçada de 4000 ft
Temporalment
l' 25 a les 21 UTC al 26 a les 03 UTC
Visibilitat: 4000 m
torb baixa de sorra
Probabilitat 40% :
Temporalment
l' 25 a les 21 UTC al 25 a les 24 UTC
Vent 18 kt del Est/Nord-Est amb ràfegues de 30 kt
Visibilitat: 2000 m
Escasses núvols a una alçada de 4000 ft, Cumulonimbus.
torb alta de sora

TAF: DAUT 252000Z 2521/2606 05018KT 6000 FEW040 TEMPO 2521/2603 4000 DRSA PROB40 TEMPO 2521/2524 06018G30KT 2000 BLSA FEW040CB

Observacions i pronòstics meteorològics de més de 4000 aeroports (METAR i TAF).

Les estacions disponibles són els punts grocs i vermells al mapa.

Posi el ratolí al punt desitjat per veure el nom de l'estació.

Feu clic per veure les observacions i els pronòstics meteorològics.

Per canviar el mapa: feu clic els botons verds amb una creu de color negre per apropar; al botó verd amb un guió per allunyar la imatge; o en les fletxes verdes per a mapes adjacents.


METAR-TAF: